sensor_id;sensor_type;location;lat;lon;timestamp;P1;durP1;ratioP1;P2;durP2;ratioP2
3052;SDS011;1536;51.098;6.414;2024-03-02T00:00:48;4.93;;;1.70;;
3052;SDS011;1536;51.098;6.414;2024-03-02T00:03:17;2.63;;;2.00;;
3052;SDS011;1536;51.098;6.414;2024-03-02T00:05:48;4.87;;;1.93;;
3052;SDS011;1536;51.098;6.414;2024-03-02T00:08:18;3.45;;;1.88;;
3052;SDS011;1536;51.098;6.414;2024-03-02T00:10:51;3.92;;;1.45;;
3052;SDS011;1536;51.098;6.414;2024-03-02T00:13:19;2.90;;;1.57;;
3052;SDS011;1536;51.098;6.414;2024-03-02T00:15:50;2.00;;;1.70;;
3052;SDS011;1536;51.098;6.414;2024-03-02T00:18:20;2.75;;;1.83;;
3052;SDS011;1536;51.098;6.414;2024-03-02T00:20:52;4.13;;;1.75;;
3052;SDS011;1536;51.098;6.414;2024-03-02T00:23:21;4.10;;;1.70;;
3052;SDS011;1536;51.098;6.414;2024-03-02T00:25:48;2.00;;;1.70;;
3052;SDS011;1536;51.098;6.414;2024-03-02T00:28:19;2.88;;;1.60;;
3052;SDS011;1536;51.098;6.414;2024-03-02T00:30:51;3.53;;;1.67;;
3052;SDS011;1536;51.098;6.414;2024-03-02T00:33:23;1.93;;;1.67;;
3052;SDS011;1536;51.098;6.414;2024-03-02T00:35:53;2.03;;;1.70;;
3052;SDS011;1536;51.098;6.414;2024-03-02T00:38:20;1.95;;;1.55;;
3052;SDS011;1536;51.098;6.414;2024-03-02T00:40:47;2.08;;;1.50;;
3052;SDS011;1536;51.098;6.414;2024-03-02T00:46:06;3.03;;;1.57;;
3052;SDS011;1536;51.098;6.414;2024-03-02T00:48:34;3.67;;;1.77;;
3052;SDS011;1536;51.098;6.414;2024-03-02T00:51:02;1.88;;;1.52;;
3052;SDS011;1536;51.098;6.414;2024-03-02T00:53:29;7.97;;;2.60;;
3052;SDS011;1536;51.098;6.414;2024-03-02T00:55:57;1.42;;;1.33;;
3052;SDS011;1536;51.098;6.414;2024-03-02T00:58:24;1.93;;;1.73;;
3052;SDS011;1536;51.098;6.414;2024-03-02T01:00:51;1.97;;;1.77;;
3052;SDS011;1536;51.098;6.414;2024-03-02T01:03:18;5.63;;;2.00;;
3052;SDS011;1536;51.098;6.414;2024-03-02T01:05:47;1.87;;;1.60;;
3052;SDS011;1536;51.098;6.414;2024-03-02T01:08:13;1.52;;;1.30;;
3052;SDS011;1536;51.098;6.414;2024-03-02T01:10:41;3.00;;;1.75;;
3052;SDS011;1536;51.098;6.414;2024-03-02T01:13:08;4.13;;;1.90;;
3052;SDS011;1536;51.098;6.414;2024-03-02T01:15:35;3.25;;;1.50;;
3052;SDS011;1536;51.098;6.414;2024-03-02T01:18:02;2.30;;;1.48;;
3052;SDS011;1536;51.098;6.414;2024-03-02T01:20:29;3.25;;;1.63;;
3052;SDS011;1536;51.098;6.414;2024-03-02T01:22:57;1.98;;;1.70;;
3052;SDS011;1536;51.098;6.414;2024-03-02T01:25:24;3.05;;;1.80;;
3052;SDS011;1536;51.098;6.414;2024-03-02T01:27:51;1.95;;;1.58;;
3052;SDS011;1536;51.098;6.414;2024-03-02T01:30:18;2.00;;;1.80;;
3052;SDS011;1536;51.098;6.414;2024-03-02T01:32:46;2.58;;;1.55;;
3052;SDS011;1536;51.098;6.414;2024-03-02T01:35:14;4.93;;;2.00;;
3052;SDS011;1536;51.098;6.414;2024-03-02T01:37:41;2.47;;;1.83;;
3052;SDS011;1536;51.098;6.414;2024-03-02T01:40:10;4.68;;;2.13;;
3052;SDS011;1536;51.098;6.414;2024-03-02T01:42:37;2.73;;;1.83;;
3052;SDS011;1536;51.098;6.414;2024-03-02T01:45:05;2.70;;;1.60;;
3052;SDS011;1536;51.098;6.414;2024-03-02T01:47:33;3.05;;;1.30;;
3052;SDS011;1536;51.098;6.414;2024-03-02T01:50:00;3.07;;;1.83;;
3052;SDS011;1536;51.098;6.414;2024-03-02T01:52:27;4.13;;;1.70;;
3052;SDS011;1536;51.098;6.414;2024-03-02T01:54:56;2.13;;;1.70;;
3052;SDS011;1536;51.098;6.414;2024-03-02T01:57:24;4.40;;;1.60;;
3052;SDS011;1536;51.098;6.414;2024-03-02T01:59:51;3.85;;;2.15;;
3052;SDS011;1536;51.098;6.414;2024-03-02T02:02:18;5.30;;;2.00;;
3052;SDS011;1536;51.098;6.414;2024-03-02T02:04:47;5.93;;;1.90;;
3052;SDS011;1536;51.098;6.414;2024-03-02T02:07:14;1.98;;;1.40;;
3052;SDS011;1536;51.098;6.414;2024-03-02T02:09:41;1.85;;;1.33;;
3052;SDS011;1536;51.098;6.414;2024-03-02T02:12:08;2.65;;;1.42;;
3052;SDS011;1536;51.098;6.414;2024-03-02T02:14:37;2.90;;;1.77;;
3052;SDS011;1536;51.098;6.414;2024-03-02T02:17:05;5.20;;;1.80;;
3052;SDS011;1536;51.098;6.414;2024-03-02T02:19:32;3.15;;;1.48;;
3052;SDS011;1536;51.098;6.414;2024-03-02T02:22:00;3.60;;;2.03;;
3052;SDS011;1536;51.098;6.414;2024-03-02T02:24:27;3.20;;;2.05;;
3052;SDS011;1536;51.098;6.414;2024-03-02T02:26:54;3.17;;;1.77;;
3052;SDS011;1536;51.098;6.414;2024-03-02T02:29:20;1.83;;;1.50;;
3052;SDS011;1536;51.098;6.414;2024-03-02T02:31:47;3.00;;;1.67;;
3052;SDS011;1536;51.098;6.414;2024-03-02T02:34:14;2.20;;;1.75;;
3052;SDS011;1536;51.098;6.414;2024-03-02T02:36:41;2.97;;;1.85;;
3052;SDS011;1536;51.098;6.414;2024-03-02T02:39:11;4.20;;;1.40;;
3052;SDS011;1536;51.098;6.414;2024-03-02T02:41:39;2.23;;;1.20;;
3052;SDS011;1536;51.098;6.414;2024-03-02T02:44:06;3.40;;;1.65;;
3052;SDS011;1536;51.098;6.414;2024-03-02T02:46:33;5.72;;;1.40;;
3052;SDS011;1536;51.098;6.414;2024-03-02T02:49:00;2.50;;;1.40;;
3052;SDS011;1536;51.098;6.414;2024-03-02T02:51:41;1.20;;;1.10;;
3052;SDS011;1536;51.098;6.414;2024-03-02T02:54:08;1.60;;;1.40;;
3052;SDS011;1536;51.098;6.414;2024-03-02T02:56:36;1.57;;;1.03;;
3052;SDS011;1536;51.098;6.414;2024-03-02T02:59:03;2.03;;;1.20;;
3052;SDS011;1536;51.098;6.414;2024-03-02T03:01:30;1.00;;;0.90;;
3052;SDS011;1536;51.098;6.414;2024-03-02T03:03:57;1.52;;;1.10;;
3052;SDS011;1536;51.098;6.414;2024-03-02T03:06:24;1.38;;;0.80;;
3052;SDS011;1536;51.098;6.414;2024-03-02T03:08:51;1.52;;;0.80;;
3052;SDS011;1536;51.098;6.414;2024-03-02T03:11:19;1.27;;;0.80;;
3052;SDS011;1536;51.098;6.414;2024-03-02T03:13:47;1.95;;;1.08;;
3052;SDS011;1536;51.098;6.414;2024-03-02T03:16:14;1.00;;;0.90;;
3052;SDS011;1536;51.098;6.414;2024-03-02T03:18:44;1.63;;;0.85;;
3052;SDS011;1536;51.098;6.414;2024-03-02T03:21:11;3.57;;;1.00;;
3052;SDS011;1536;51.098;6.414;2024-03-02T03:23:38;1.95;;;0.90;;
3052;SDS011;1536;51.098;6.414;2024-03-02T03:26:04;0.85;;;0.80;;
3052;SDS011;1536;51.098;6.414;2024-03-02T03:28:33;1.30;;;0.90;;
3052;SDS011;1536;51.098;6.414;2024-03-02T03:30:59;1.00;;;0.90;;
3052;SDS011;1536;51.098;6.414;2024-03-02T03:33:27;1.00;;;0.80;;
3052;SDS011;1536;51.098;6.414;2024-03-02T03:35:54;1.80;;;0.90;;
3052;SDS011;1536;51.098;6.414;2024-03-02T03:38:21;1.70;;;0.90;;
3052;SDS011;1536;51.098;6.414;2024-03-02T03:40:48;1.03;;;0.80;;
3052;SDS011;1536;51.098;6.414;2024-03-02T03:43:15;1.07;;;0.90;;
3052;SDS011;1536;51.098;6.414;2024-03-02T03:45:43;1.20;;;0.80;;
3052;SDS011;1536;51.098;6.414;2024-03-02T03:48:10;1.10;;;1.00;;
3052;SDS011;1536;51.098;6.414;2024-03-02T03:50:37;1.20;;;0.93;;
3052;SDS011;1536;51.098;6.414;2024-03-02T03:53:04;1.47;;;0.93;;
3052;SDS011;1536;51.098;6.414;2024-03-02T03:55:30;1.53;;;0.80;;
3052;SDS011;1536;51.098;6.414;2024-03-02T03:57:57;1.00;;;0.90;;
3052;SDS011;1536;51.098;6.414;2024-03-02T04:00:24;1.23;;;0.97;;
3052;SDS011;1536;51.098;6.414;2024-03-02T04:02:52;1.42;;;1.20;;
3052;SDS011;1536;51.098;6.414;2024-03-02T04:05:20;1.88;;;1.00;;
3052;SDS011;1536;51.098;6.414;2024-03-02T04:07:46;6.67;;;2.73;;
3052;SDS011;1536;51.098;6.414;2024-03-02T04:10:13;1.87;;;1.07;;
3052;SDS011;1536;51.098;6.414;2024-03-02T04:12:42;2.38;;;1.13;;
3052;SDS011;1536;51.098;6.414;2024-03-02T04:15:09;1.00;;;0.90;;
3052;SDS011;1536;51.098;6.414;2024-03-02T04:17:35;1.27;;;1.17;;
3052;SDS011;1536;51.098;6.414;2024-03-02T04:20:04;1.60;;;1.30;;
3052;SDS011;1536;51.098;6.414;2024-03-02T04:22:32;1.35;;;1.25;;
3052;SDS011;1536;51.098;6.414;2024-03-02T04:25:00;1.30;;;1.10;;
3052;SDS011;1536;51.098;6.414;2024-03-02T04:27:29;4.38;;;1.60;;
3052;SDS011;1536;51.098;6.414;2024-03-02T04:29:56;5.60;;;1.97;;
3052;SDS011;1536;51.098;6.414;2024-03-02T04:32:25;6.25;;;2.35;;
3052;SDS011;1536;51.098;6.414;2024-03-02T04:34:52;2.83;;;1.70;;
3052;SDS011;1536;51.098;6.414;2024-03-02T04:37:21;2.50;;;1.47;;
3052;SDS011;1536;51.098;6.414;2024-03-02T04:39:48;2.17;;;1.30;;
3052;SDS011;1536;51.098;6.414;2024-03-02T04:42:15;2.37;;;1.50;;
3052;SDS011;1536;51.098;6.414;2024-03-02T04:44:41;2.65;;;1.60;;
3052;SDS011;1536;51.098;6.414;2024-03-02T04:47:08;6.53;;;1.43;;
3052;SDS011;1536;51.098;6.414;2024-03-02T04:49:35;3.63;;;2.03;;
3052;SDS011;1536;51.098;6.414;2024-03-02T04:52:01;2.97;;;1.80;;
3052;SDS011;1536;51.098;6.414;2024-03-02T04:54:29;4.50;;;1.90;;
3052;SDS011;1536;51.098;6.414;2024-03-02T04:56:56;1.55;;;1.45;;
3052;SDS011;1536;51.098;6.414;2024-03-02T04:59:22;1.60;;;1.50;;
3052;SDS011;1536;51.098;6.414;2024-03-02T05:01:49;1.75;;;1.65;;
3052;SDS011;1536;51.098;6.414;2024-03-02T05:04:16;2.65;;;1.38;;
3052;SDS011;1536;51.098;6.414;2024-03-02T05:06:43;3.05;;;1.60;;
3052;SDS011;1536;51.098;6.414;2024-03-02T05:09:15;1.77;;;1.40;;
3052;SDS011;1536;51.098;6.414;2024-03-02T05:11:44;1.57;;;1.43;;
3052;SDS011;1536;51.098;6.414;2024-03-02T05:14:30;4.40;;;1.88;;
3052;SDS011;1536;51.098;6.414;2024-03-02T05:16:57;5.38;;;2.00;;
3052;SDS011;1536;51.098;6.414;2024-03-02T05:19:24;3.63;;;2.00;;
3052;SDS011;1536;51.098;6.414;2024-03-02T05:21:51;2.78;;;1.60;;
3052;SDS011;1536;51.098;6.414;2024-03-02T05:24:17;4.80;;;1.57;;
3052;SDS011;1536;51.098;6.414;2024-03-02T05:26:46;1.60;;;1.50;;
3052;SDS011;1536;51.098;6.414;2024-03-02T05:29:12;1.80;;;1.20;;
3052;SDS011;1536;51.098;6.414;2024-03-02T05:31:39;1.63;;;1.17;;
3052;SDS011;1536;51.098;6.414;2024-03-02T05:34:06;2.20;;;1.33;;
3052;SDS011;1536;51.098;6.414;2024-03-02T05:36:33;2.30;;;1.13;;
3052;SDS011;1536;51.098;6.414;2024-03-02T05:39:00;1.30;;;1.10;;
3052;SDS011;1536;51.098;6.414;2024-03-02T05:41:29;1.87;;;1.33;;
3052;SDS011;1536;51.098;6.414;2024-03-02T05:43:58;1.90;;;1.40;;
3052;SDS011;1536;51.098;6.414;2024-03-02T05:46:24;2.77;;;1.10;;
3052;SDS011;1536;51.098;6.414;2024-03-02T05:48:51;1.40;;;1.13;;
3052;SDS011;1536;51.098;6.414;2024-03-02T05:51:18;2.80;;;1.47;;
3052;SDS011;1536;51.098;6.414;2024-03-02T05:53:45;2.67;;;1.50;;
3052;SDS011;1536;51.098;6.414;2024-03-02T05:56:12;1.57;;;1.33;;
3052;SDS011;1536;51.098;6.414;2024-03-02T05:58:40;9.63;;;1.53;;
3052;SDS011;1536;51.098;6.414;2024-03-02T06:01:24;2.13;;;1.40;;
3052;SDS011;1536;51.098;6.414;2024-03-02T06:03:53;4.32;;;1.48;;
3052;SDS011;1536;51.098;6.414;2024-03-02T06:06:21;2.30;;;1.85;;
3052;SDS011;1536;51.098;6.414;2024-03-02T06:08:48;4.80;;;1.70;;
3052;SDS011;1536;51.098;6.414;2024-03-02T06:11:15;1.80;;;1.70;;
3052;SDS011;1536;51.098;6.414;2024-03-02T06:13:42;4.40;;;1.55;;
3052;SDS011;1536;51.098;6.414;2024-03-02T06:16:09;2.28;;;1.52;;
3052;SDS011;1536;51.098;6.414;2024-03-02T06:18:37;3.80;;;1.60;;
3052;SDS011;1536;51.098;6.414;2024-03-02T06:21:04;3.93;;;1.63;;
3052;SDS011;1536;51.098;6.414;2024-03-02T06:23:31;4.90;;;1.70;;
3052;SDS011;1536;51.098;6.414;2024-03-02T06:25:58;3.90;;;1.88;;
3052;SDS011;1536;51.098;6.414;2024-03-02T06:28:25;2.35;;;1.80;;
3052;SDS011;1536;51.098;6.414;2024-03-02T06:30:52;4.43;;;1.80;;
3052;SDS011;1536;51.098;6.414;2024-03-02T06:33:19;3.70;;;2.10;;
3052;SDS011;1536;51.098;6.414;2024-03-02T06:35:48;3.80;;;2.60;;
3052;SDS011;1536;51.098;6.414;2024-03-02T06:38:15;3.50;;;2.20;;
3052;SDS011;1536;51.098;6.414;2024-03-02T06:40:42;3.28;;;2.05;;
3052;SDS011;1536;51.098;6.414;2024-03-02T06:43:09;3.65;;;2.70;;
3052;SDS011;1536;51.098;6.414;2024-03-02T06:45:36;4.13;;;3.30;;
3052;SDS011;1536;51.098;6.414;2024-03-02T06:48:03;2.50;;;2.20;;
3052;SDS011;1536;51.098;6.414;2024-03-02T06:50:30;4.43;;;2.70;;
3052;SDS011;1536;51.098;6.414;2024-03-02T06:52:58;3.95;;;2.33;;
3052;SDS011;1536;51.098;6.414;2024-03-02T06:55:25;2.40;;;1.80;;
3052;SDS011;1536;51.098;6.414;2024-03-02T06:57:52;2.58;;;1.70;;
3052;SDS011;1536;51.098;6.414;2024-03-02T07:00:19;3.00;;;2.30;;
3052;SDS011;1536;51.098;6.414;2024-03-02T07:02:46;4.35;;;2.45;;
3052;SDS011;1536;51.098;6.414;2024-03-02T07:05:13;1.90;;;1.80;;
3052;SDS011;1536;51.098;6.414;2024-03-02T07:07:40;4.95;;;2.05;;
3052;SDS011;1536;51.098;6.414;2024-03-02T07:10:08;4.50;;;2.20;;
3052;SDS011;1536;51.098;6.414;2024-03-02T07:12:35;3.92;;;2.25;;
3052;SDS011;1536;51.098;6.414;2024-03-02T07:15:02;4.78;;;1.80;;
3052;SDS011;1536;51.098;6.414;2024-03-02T07:17:55;2.00;;;1.55;;
3052;SDS011;1536;51.098;6.414;2024-03-02T07:20:22;2.30;;;1.50;;
3052;SDS011;1536;51.098;6.414;2024-03-02T07:22:48;2.13;;;1.58;;
3052;SDS011;1536;51.098;6.414;2024-03-02T07:25:17;3.05;;;2.15;;
3052;SDS011;1536;51.098;6.414;2024-03-02T07:27:43;3.30;;;1.88;;
3052;SDS011;1536;51.098;6.414;2024-03-02T07:30:13;2.22;;;1.50;;
3052;SDS011;1536;51.098;6.414;2024-03-02T07:32:41;2.80;;;1.80;;
3052;SDS011;1536;51.098;6.414;2024-03-02T07:35:11;3.25;;;1.80;;
3052;SDS011;1536;51.098;6.414;2024-03-02T07:37:38;2.58;;;2.05;;
3052;SDS011;1536;51.098;6.414;2024-03-02T07:40:05;4.43;;;1.70;;
3052;SDS011;1536;51.098;6.414;2024-03-02T07:42:37;2.50;;;1.80;;
3052;SDS011;1536;51.098;6.414;2024-03-02T07:45:05;2.85;;;1.98;;
3052;SDS011;1536;51.098;6.414;2024-03-02T07:47:33;1.70;;;1.60;;
3052;SDS011;1536;51.098;6.414;2024-03-02T07:50:00;2.90;;;1.40;;
3052;SDS011;1536;51.098;6.414;2024-03-02T07:52:27;6.13;;;2.08;;
3052;SDS011;1536;51.098;6.414;2024-03-02T07:54:54;1.80;;;1.50;;
3052;SDS011;1536;51.098;6.414;2024-03-02T07:57:21;4.13;;;1.55;;
3052;SDS011;1536;51.098;6.414;2024-03-02T07:59:49;1.73;;;1.53;;
3052;SDS011;1536;51.098;6.414;2024-03-02T08:02:16;2.53;;;1.47;;
3052;SDS011;1536;51.098;6.414;2024-03-02T08:04:43;2.50;;;1.50;;
3052;SDS011;1536;51.098;6.414;2024-03-02T08:07:11;2.75;;;1.80;;
3052;SDS011;1536;51.098;6.414;2024-03-02T08:09:38;2.38;;;1.90;;
3052;SDS011;1536;51.098;6.414;2024-03-02T08:12:05;1.50;;;1.40;;
3052;SDS011;1536;51.098;6.414;2024-03-02T08:14:33;1.52;;;1.42;;
3052;SDS011;1536;51.098;6.414;2024-03-02T08:17:02;1.70;;;1.60;;
3052;SDS011;1536;51.098;6.414;2024-03-02T08:19:34;8.27;;;2.17;;
3052;SDS011;1536;51.098;6.414;2024-03-02T08:22:01;2.72;;;2.53;;
3052;SDS011;1536;51.098;6.414;2024-03-02T08:24:28;4.50;;;3.20;;
3052;SDS011;1536;51.098;6.414;2024-03-02T08:26:55;3.00;;;2.30;;
3052;SDS011;1536;51.098;6.414;2024-03-02T08:29:22;3.47;;;2.70;;
3052;SDS011;1536;51.098;6.414;2024-03-02T08:31:49;4.13;;;2.97;;
3052;SDS011;1536;51.098;6.414;2024-03-02T08:34:17;5.00;;;2.70;;
3052;SDS011;1536;51.098;6.414;2024-03-02T08:36:44;7.53;;;4.57;;
3052;SDS011;1536;51.098;6.414;2024-03-02T08:39:12;3.40;;;2.83;;
3052;SDS011;1536;51.098;6.414;2024-03-02T08:41:40;5.03;;;2.70;;
3052;SDS011;1536;51.098;6.414;2024-03-02T08:44:08;3.83;;;1.70;;
3052;SDS011;1536;51.098;6.414;2024-03-02T08:46:35;2.50;;;1.60;;
3052;SDS011;1536;51.098;6.414;2024-03-02T08:49:02;1.40;;;1.30;;
3052;SDS011;1536;51.098;6.414;2024-03-02T08:51:30;2.93;;;2.03;;
3052;SDS011;1536;51.098;6.414;2024-03-02T08:53:57;2.47;;;1.52;;
3052;SDS011;1536;51.098;6.414;2024-03-02T08:56:24;1.50;;;1.30;;
3052;SDS011;1536;51.098;6.414;2024-03-02T08:58:52;2.10;;;1.67;;
3052;SDS011;1536;51.098;6.414;2024-03-02T09:01:19;2.83;;;1.50;;
3052;SDS011;1536;51.098;6.414;2024-03-02T09:03:46;5.03;;;3.40;;
3052;SDS011;1536;51.098;6.414;2024-03-02T09:06:14;1.60;;;1.50;;
3052;SDS011;1536;51.098;6.414;2024-03-02T09:08:44;2.40;;;1.43;;
3052;SDS011;1536;51.098;6.414;2024-03-02T09:11:11;4.20;;;1.30;;
3052;SDS011;1536;51.098;6.414;2024-03-02T09:13:38;1.43;;;1.33;;
3052;SDS011;1536;51.098;6.414;2024-03-02T09:16:05;1.97;;;1.47;;
3052;SDS011;1536;51.098;6.414;2024-03-02T09:18:35;2.53;;;1.50;;
3052;SDS011;1536;51.098;6.414;2024-03-02T09:21:02;3.07;;;1.70;;
3052;SDS011;1536;51.098;6.414;2024-03-02T09:23:30;2.40;;;1.77;;
3052;SDS011;1536;51.098;6.414;2024-03-02T09:25:58;1.87;;;1.30;;
3052;SDS011;1536;51.098;6.414;2024-03-02T09:28:25;1.73;;;1.43;;
3052;SDS011;1536;51.098;6.414;2024-03-02T09:30:52;2.07;;;1.50;;
3052;SDS011;1536;51.098;6.414;2024-03-02T09:33:19;1.80;;;1.40;;
3052;SDS011;1536;51.098;6.414;2024-03-02T09:35:46;2.03;;;1.33;;
3052;SDS011;1536;51.098;6.414;2024-03-02T09:38:14;1.67;;;1.20;;
3052;SDS011;1536;51.098;6.414;2024-03-02T09:40:41;1.63;;;1.50;;
3052;SDS011;1536;51.098;6.414;2024-03-02T09:43:10;2.80;;;1.47;;
3052;SDS011;1536;51.098;6.414;2024-03-02T09:45:38;2.27;;;1.40;;
3052;SDS011;1536;51.098;6.414;2024-03-02T09:48:06;2.50;;;1.20;;
3052;SDS011;1536;51.098;6.414;2024-03-02T09:50:33;5.33;;;2.17;;
3052;SDS011;1536;51.098;6.414;2024-03-02T09:53:01;2.03;;;1.60;;
3052;SDS011;1536;51.098;6.414;2024-03-02T09:55:28;1.97;;;1.53;;
3052;SDS011;1536;51.098;6.414;2024-03-02T09:57:55;6.43;;;1.57;;
3052;SDS011;1536;51.098;6.414;2024-03-02T10:00:24;2.40;;;1.33;;
3052;SDS011;1536;51.098;6.414;2024-03-02T10:02:50;8.33;;;1.70;;
3052;SDS011;1536;51.098;6.414;2024-03-02T10:05:23;2.97;;;1.57;;
3052;SDS011;1536;51.098;6.414;2024-03-02T10:07:58;2.90;;;1.60;;
3052;SDS011;1536;51.098;6.414;2024-03-02T10:10:34;3.50;;;1.30;;
3052;SDS011;1536;51.098;6.414;2024-03-02T10:13:05;1.77;;;1.20;;
3052;SDS011;1536;51.098;6.414;2024-03-02T10:15:35;9.90;;;2.23;;
3052;SDS011;1536;51.098;6.414;2024-03-02T10:18:06;1.60;;;1.00;;
3052;SDS011;1536;51.098;6.414;2024-03-02T10:20:35;2.87;;;1.43;;
3052;SDS011;1536;51.098;6.414;2024-03-02T10:23:12;1.20;;;1.00;;
3052;SDS011;1536;51.098;6.414;2024-03-02T10:25:42;2.27;;;1.30;;
3052;SDS011;1536;51.098;6.414;2024-03-02T10:28:10;2.63;;;1.30;;
3052;SDS011;1536;51.098;6.414;2024-03-02T10:30:38;2.73;;;1.40;;
3052;SDS011;1536;51.098;6.414;2024-03-02T10:33:06;3.20;;;1.57;;
3052;SDS011;1536;51.098;6.414;2024-03-02T10:35:33;4.37;;;2.03;;
3052;SDS011;1536;51.098;6.414;2024-03-02T10:38:03;5.93;;;1.47;;
3052;SDS011;1536;51.098;6.414;2024-03-02T10:40:32;4.23;;;1.50;;
3052;SDS011;1536;51.098;6.414;2024-03-02T10:43:00;1.63;;;1.10;;
3052;SDS011;1536;51.098;6.414;2024-03-02T10:45:31;5.83;;;1.53;;
3052;SDS011;1536;51.098;6.414;2024-03-02T10:47:59;3.03;;;1.70;;
3052;SDS011;1536;51.098;6.414;2024-03-02T10:50:30;2.70;;;1.70;;
3052;SDS011;1536;51.098;6.414;2024-03-02T10:52:58;3.73;;;1.77;;
3052;SDS011;1536;51.098;6.414;2024-03-02T10:55:26;4.20;;;1.40;;
3052;SDS011;1536;51.098;6.414;2024-03-02T10:57:54;2.10;;;1.17;;
3052;SDS011;1536;51.098;6.414;2024-03-02T11:00:22;4.23;;;1.10;;
3052;SDS011;1536;51.098;6.414;2024-03-02T11:02:55;4.00;;;1.47;;
3052;SDS011;1536;51.098;6.414;2024-03-02T11:05:27;3.80;;;2.40;;
3052;SDS011;1536;51.098;6.414;2024-03-02T11:08:00;2.67;;;1.57;;
3052;SDS011;1536;51.098;6.414;2024-03-02T11:10:31;2.50;;;1.40;;
3052;SDS011;1536;51.098;6.414;2024-03-02T11:13:02;4.40;;;1.50;;
3052;SDS011;1536;51.098;6.414;2024-03-02T11:15:31;2.77;;;1.40;;
3052;SDS011;1536;51.098;6.414;2024-03-02T11:18:01;1.50;;;1.30;;
3052;SDS011;1536;51.098;6.414;2024-03-02T11:20:34;2.93;;;1.70;;
3052;SDS011;1536;51.098;6.414;2024-03-02T11:23:08;7.07;;;1.50;;
3052;SDS011;1536;51.098;6.414;2024-03-02T11:25:36;2.03;;;1.03;;
3052;SDS011;1536;51.098;6.414;2024-03-02T11:28:04;4.57;;;1.73;;
3052;SDS011;1536;51.098;6.414;2024-03-02T11:30:49;2.50;;;1.20;;
3052;SDS011;1536;51.098;6.414;2024-03-02T11:33:18;2.90;;;1.37;;
3052;SDS011;1536;51.098;6.414;2024-03-02T11:35:56;4.50;;;1.10;;
3052;SDS011;1536;51.098;6.414;2024-03-02T11:38:33;4.23;;;1.33;;
3052;SDS011;1536;51.098;6.414;2024-03-02T11:41:01;4.63;;;1.10;;
3052;SDS011;1536;51.098;6.414;2024-03-02T11:43:32;1.77;;;1.10;;
3052;SDS011;1536;51.098;6.414;2024-03-02T11:46:00;8.00;;;1.70;;
3052;SDS011;1536;51.098;6.414;2024-03-02T11:48:35;3.23;;;1.10;;
3052;SDS011;1536;51.098;6.414;2024-03-02T11:51:04;3.80;;;1.10;;
3052;SDS011;1536;51.098;6.414;2024-03-02T11:53:31;3.57;;;1.37;;
3052;SDS011;1536;51.098;6.414;2024-03-02T11:56:00;4.17;;;1.20;;
3052;SDS011;1536;51.098;6.414;2024-03-02T11:58:30;3.27;;;1.37;;
3052;SDS011;1536;51.098;6.414;2024-03-02T12:00:59;2.93;;;1.37;;
3052;SDS011;1536;51.098;6.414;2024-03-02T12:03:27;4.57;;;1.30;;
3052;SDS011;1536;51.098;6.414;2024-03-02T12:05:54;3.03;;;1.43;;
3052;SDS011;1536;51.098;6.414;2024-03-02T12:08:23;1.50;;;1.40;;
3052;SDS011;1536;51.098;6.414;2024-03-02T12:10:57;8.07;;;1.77;;
3052;SDS011;1536;51.098;6.414;2024-03-02T12:13:25;6.63;;;2.37;;
3052;SDS011;1536;51.098;6.414;2024-03-02T12:15:53;17.90;;;2.23;;
3052;SDS011;1536;51.098;6.414;2024-03-02T12:18:21;17.03;;;2.20;;
3052;SDS011;1536;51.098;6.414;2024-03-02T12:20:48;4.90;;;1.63;;
3052;SDS011;1536;51.098;6.414;2024-03-02T12:23:17;6.77;;;1.93;;
3052;SDS011;1536;51.098;6.414;2024-03-02T12:25:47;1.93;;;1.67;;
3052;SDS011;1536;51.098;6.414;2024-03-02T12:28:14;4.40;;;1.57;;
3052;SDS011;1536;51.098;6.414;2024-03-02T12:30:41;5.30;;;1.43;;
3052;SDS011;1536;51.098;6.414;2024-03-02T12:33:08;3.07;;;1.43;;
3052;SDS011;1536;51.098;6.414;2024-03-02T12:35:38;5.23;;;2.10;;
3052;SDS011;1536;51.098;6.414;2024-03-02T12:38:06;5.70;;;1.70;;
3052;SDS011;1536;51.098;6.414;2024-03-02T12:40:33;6.10;;;1.63;;
3052;SDS011;1536;51.098;6.414;2024-03-02T12:43:04;20.47;;;1.80;;
3052;SDS011;1536;51.098;6.414;2024-03-02T12:45:31;1.27;;;1.17;;
3052;SDS011;1536;51.098;6.414;2024-03-02T12:47:59;8.33;;;1.33;;
3052;SDS011;1536;51.098;6.414;2024-03-02T12:50:27;5.90;;;2.43;;
3052;SDS011;1536;51.098;6.414;2024-03-02T12:52:54;6.20;;;1.90;;
3052;SDS011;1536;51.098;6.414;2024-03-02T12:55:21;4.80;;;2.57;;
3052;SDS011;1536;51.098;6.414;2024-03-02T12:57:49;3.27;;;1.47;;
3052;SDS011;1536;51.098;6.414;2024-03-02T13:00:19;12.83;;;2.53;;
3052;SDS011;1536;51.098;6.414;2024-03-02T13:02:46;7.00;;;2.50;;
3052;SDS011;1536;51.098;6.414;2024-03-02T13:05:15;14.10;;;2.40;;
3052;SDS011;1536;51.098;6.414;2024-03-02T13:07:42;12.87;;;2.47;;
3052;SDS011;1536;51.098;6.414;2024-03-02T13:10:10;8.33;;;1.80;;
3052;SDS011;1536;51.098;6.414;2024-03-02T13:12:38;9.23;;;1.90;;
3052;SDS011;1536;51.098;6.414;2024-03-02T13:15:05;14.00;;;3.03;;
3052;SDS011;1536;51.098;6.414;2024-03-02T13:17:35;20.60;;;2.47;;
3052;SDS011;1536;51.098;6.414;2024-03-02T13:20:02;15.80;;;2.20;;
3052;SDS011;1536;51.098;6.414;2024-03-02T13:22:33;3.40;;;2.13;;
3052;SDS011;1536;51.098;6.414;2024-03-02T13:25:00;7.90;;;2.80;;
3052;SDS011;1536;51.098;6.414;2024-03-02T13:27:28;10.00;;;2.20;;
3052;SDS011;1536;51.098;6.414;2024-03-02T13:29:55;11.00;;;2.73;;
3052;SDS011;1536;51.098;6.414;2024-03-02T13:32:22;10.77;;;2.50;;
3052;SDS011;1536;51.098;6.414;2024-03-02T13:34:52;18.17;;;2.53;;
3052;SDS011;1536;51.098;6.414;2024-03-02T13:37:19;22.07;;;2.70;;
3052;SDS011;1536;51.098;6.414;2024-03-02T13:39:47;11.23;;;2.30;;
3052;SDS011;1536;51.098;6.414;2024-03-02T13:42:14;15.27;;;2.60;;
3052;SDS011;1536;51.098;6.414;2024-03-02T13:44:42;16.70;;;2.47;;
3052;SDS011;1536;51.098;6.414;2024-03-02T13:47:10;10.77;;;1.83;;
3052;SDS011;1536;51.098;6.414;2024-03-02T13:49:37;17.87;;;2.63;;
3052;SDS011;1536;51.098;6.414;2024-03-02T13:52:10;24.27;;;2.80;;
3052;SDS011;1536;51.098;6.414;2024-03-02T13:54:38;11.17;;;2.27;;
3052;SDS011;1536;51.098;6.414;2024-03-02T13:57:05;4.43;;;1.80;;
3052;SDS011;1536;51.098;6.414;2024-03-02T13:59:32;7.07;;;2.13;;
3052;SDS011;1536;51.098;6.414;2024-03-02T14:01:59;3.70;;;2.10;;
3052;SDS011;1536;51.098;6.414;2024-03-02T14:04:26;8.73;;;2.50;;
3052;SDS011;1536;51.098;6.414;2024-03-02T14:06:53;18.43;;;2.67;;
3052;SDS011;1536;51.098;6.414;2024-03-02T14:09:23;9.40;;;2.47;;
3052;SDS011;1536;51.098;6.414;2024-03-02T14:11:49;10.27;;;2.30;;
3052;SDS011;1536;51.098;6.414;2024-03-02T14:14:16;8.73;;;2.13;;
3052;SDS011;1536;51.098;6.414;2024-03-02T14:16:46;15.43;;;2.20;;
3052;SDS011;1536;51.098;6.414;2024-03-02T14:19:14;14.37;;;2.23;;
3052;SDS011;1536;51.098;6.414;2024-03-02T14:21:41;13.47;;;2.20;;
3052;SDS011;1536;51.098;6.414;2024-03-02T14:24:08;14.70;;;2.27;;
3052;SDS011;1536;51.098;6.414;2024-03-02T14:26:36;18.97;;;2.80;;
3052;SDS011;1536;51.098;6.414;2024-03-02T14:29:03;7.53;;;1.70;;
3052;SDS011;1536;51.098;6.414;2024-03-02T14:31:30;23.03;;;3.03;;
3052;SDS011;1536;51.098;6.414;2024-03-02T14:33:58;24.20;;;3.30;;
3052;SDS011;1536;51.098;6.414;2024-03-02T14:36:25;20.10;;;4.53;;
3052;SDS011;1536;51.098;6.414;2024-03-02T14:38:52;21.07;;;3.57;;
3052;SDS011;1536;51.098;6.414;2024-03-02T14:41:19;22.67;;;3.80;;
3052;SDS011;1536;51.098;6.414;2024-03-02T14:43:48;11.77;;;3.73;;
3052;SDS011;1536;51.098;6.414;2024-03-02T14:46:15;22.17;;;4.30;;
3052;SDS011;1536;51.098;6.414;2024-03-02T14:48:43;15.20;;;3.27;;
3052;SDS011;1536;51.098;6.414;2024-03-02T14:51:11;21.93;;;4.77;;
3052;SDS011;1536;51.098;6.414;2024-03-02T14:53:38;24.90;;;3.03;;
3052;SDS011;1536;51.098;6.414;2024-03-02T14:56:05;19.60;;;3.30;;
3052;SDS011;1536;51.098;6.414;2024-03-02T14:58:32;8.97;;;3.00;;
3052;SDS011;1536;51.098;6.414;2024-03-02T15:01:01;20.20;;;2.83;;
3052;SDS011;1536;51.098;6.414;2024-03-02T15:03:29;11.07;;;2.57;;
3052;SDS011;1536;51.098;6.414;2024-03-02T15:05:56;9.23;;;2.40;;
3052;SDS011;1536;51.098;6.414;2024-03-02T15:08:23;7.43;;;2.33;;
3052;SDS011;1536;51.098;6.414;2024-03-02T15:10:50;7.20;;;1.90;;
3052;SDS011;1536;51.098;6.414;2024-03-02T15:13:17;7.50;;;2.10;;
3052;SDS011;1536;51.098;6.414;2024-03-02T15:15:44;15.43;;;2.07;;
3052;SDS011;1536;51.098;6.414;2024-03-02T15:18:12;7.77;;;1.80;;
3052;SDS011;1536;51.098;6.414;2024-03-02T15:20:39;3.97;;;1.83;;
3052;SDS011;1536;51.098;6.414;2024-03-02T15:23:06;6.50;;;2.60;;